createdAt,value
2017-11-20T00:01:11.912Z,5.10
2017-11-20T00:03:39.467Z,5.10
2017-11-20T00:06:07.012Z,5.10
2017-11-20T00:08:34.613Z,5.10
2017-11-20T00:11:02.156Z,5.00
2017-11-20T00:13:30.476Z,5.00
2017-11-20T00:15:58.076Z,5.00
2017-11-20T00:18:25.631Z,4.90
2017-11-20T00:20:53.173Z,4.90
2017-11-20T00:23:20.889Z,4.80
2017-11-20T00:25:48.432Z,4.80
2017-11-20T00:28:15.972Z,4.80
2017-11-20T00:30:44.344Z,4.80
2017-11-20T00:33:12.652Z,4.70
2017-11-20T00:35:40.205Z,4.70
2017-11-20T00:38:08.477Z,4.70
2017-11-20T00:40:36.036Z,4.70
2017-11-20T00:43:03.584Z,4.80
2017-11-20T00:45:31.185Z,4.80
2017-11-20T00:47:58.740Z,4.90
2017-11-20T00:50:26.281Z,4.90
2017-11-20T00:52:53.871Z,5.00
2017-11-20T00:55:21.426Z,5.00
2017-11-20T00:57:48.976Z,5.00
2017-11-20T01:00:17.352Z,5.00
2017-11-20T01:02:45.660Z,5.00
2017-11-20T01:05:13.204Z,5.00
2017-11-20T01:07:40.801Z,5.10
2017-11-20T01:10:09.108Z,5.10
2017-11-20T01:12:36.657Z,5.10
2017-11-20T01:15:05.020Z,5.20
2017-11-20T01:17:32.564Z,5.20
2017-11-20T01:20:00.110Z,5.30
2017-11-20T01:22:28.160Z,5.30
2017-11-20T01:24:55.708Z,5.30
2017-11-20T01:27:23.253Z,5.30
2017-11-20T01:29:51.041Z,5.30
2017-11-20T01:32:18.592Z,5.20
2017-11-20T01:34:46.140Z,5.20
2017-11-20T01:37:13.859Z,5.20
2017-11-20T01:39:41.411Z,5.20
2017-11-20T01:42:08.956Z,5.20
2017-11-20T01:44:36.659Z,5.20
2017-11-20T01:47:04.212Z,5.20
2017-11-20T01:49:31.765Z,5.20
2017-11-20T01:52:00.130Z,5.20
2017-11-20T01:54:27.676Z,5.20
2017-11-20T01:56:55.228Z,5.20
2017-11-20T01:59:22.828Z,5.20
2017-11-20T02:01:50.379Z,5.20
2017-11-20T02:04:17.924Z,5.20
2017-11-20T02:06:45.748Z,5.30
2017-11-20T02:09:13.300Z,5.20
2017-11-20T02:11:40.844Z,5.20
2017-11-20T02:14:08.652Z,5.20
2017-11-20T02:16:36.192Z,5.20
2017-11-20T02:19:03.744Z,5.10
2017-11-20T02:21:32.111Z,5.00
2017-11-20T02:23:59.655Z,5.00
2017-11-20T02:26:27.492Z,4.90
2017-11-20T02:28:55.079Z,4.80
2017-11-20T02:31:22.634Z,4.70
2017-11-20T02:33:51.050Z,4.50
2017-11-20T02:36:18.640Z,4.50
2017-11-20T02:38:46.232Z,4.50
2017-11-20T02:41:13.784Z,4.40
2017-11-20T02:43:41.385Z,4.40
2017-11-20T02:46:09.702Z,4.30
2017-11-20T02:48:38.010Z,4.30
2017-11-20T02:51:05.599Z,4.20
2017-11-20T02:53:33.141Z,4.20
2017-11-20T02:56:00.806Z,4.20
2017-11-20T02:58:29.155Z,4.20
2017-11-20T03:00:56.703Z,4.20
2017-11-20T03:03:24.252Z,4.30
2017-11-20T03:05:51.848Z,4.30
2017-11-20T03:08:19.412Z,4.30
2017-11-20T03:10:46.948Z,4.40
2017-11-20T03:13:15.487Z,4.30
2017-11-20T03:15:43.046Z,4.30
2017-11-20T03:18:10.606Z,4.30
2017-11-20T03:20:38.306Z,4.30
2017-11-20T03:23:05.857Z,4.30
2017-11-20T03:25:33.405Z,4.30
2017-11-20T03:28:01.773Z,4.20
2017-11-20T03:30:29.320Z,4.20
2017-11-20T03:32:56.873Z,4.20
2017-11-20T03:35:24.473Z,4.10
2017-11-20T03:37:52.019Z,4.10
2017-11-20T03:40:19.572Z,4.00
2017-11-20T03:42:47.379Z,4.00
2017-11-20T03:45:14.954Z,4.00
2017-11-20T03:47:42.500Z,4.10
2017-11-20T03:50:10.091Z,4.20
2017-11-20T03:52:37.640Z,4.20
2017-11-20T03:55:05.187Z,4.30
2017-11-20T03:57:33.556Z,4.40
2017-11-20T04:00:01.872Z,4.40
2017-11-20T04:02:29.433Z,4.40
2017-11-20T04:04:57.783Z,4.40
2017-11-20T04:07:25.320Z,4.40
2017-11-20T04:09:52.869Z,4.40
2017-11-20T04:12:20.690Z,4.30
2017-11-20T04:14:48.241Z,4.30
2017-11-20T04:17:15.780Z,4.20
2017-11-20T04:19:44.148Z,4.10
2017-11-20T04:22:11.710Z,4.00
2017-11-20T04:24:39.256Z,4.00
2017-11-20T04:27:06.857Z,4.00
2017-11-20T04:29:35.172Z,3.90
2017-11-20T04:32:03.484Z,3.80
2017-11-20T04:34:31.200Z,3.80
2017-11-20T04:36:59.695Z,3.80
2017-11-20T04:39:28.764Z,3.80
2017-11-20T04:41:57.899Z,3.80
2017-11-20T04:44:25.548Z,3.80
2017-11-20T04:46:53.095Z,3.80
2017-11-20T04:49:21.934Z,3.80
2017-11-20T04:51:50.100Z,3.80
2017-11-20T04:54:18.692Z,3.80
2017-11-20T04:56:47.507Z,3.80
2017-11-20T04:59:15.056Z,3.70
2017-11-20T05:01:42.601Z,3.70
2017-11-20T05:04:10.953Z,3.60
2017-11-20T05:06:38.500Z,3.60
2017-11-20T05:09:06.054Z,3.60
2017-11-20T05:11:33.660Z,3.50
2017-11-20T05:14:01.212Z,3.60
2017-11-20T05:16:28.754Z,3.60
2017-11-20T05:18:57.106Z,3.60
2017-11-20T05:21:24.658Z,3.60
2017-11-20T05:23:52.208Z,3.60
2017-11-20T05:26:19.791Z,3.70
2017-11-20T05:28:47.343Z,3.70
2017-11-20T05:31:14.894Z,3.70
2017-11-20T05:33:43.257Z,3.90
2017-11-20T05:36:12.317Z,3.90
2017-11-20T05:38:39.872Z,3.90
2017-11-20T05:41:08.282Z,4.20
2017-11-20T05:43:35.828Z,4.30
2017-11-20T05:46:04.141Z,4.30
2017-11-20T05:48:31.972Z,4.30
2017-11-20T05:50:59.519Z,4.30
2017-11-20T05:53:27.071Z,4.30
2017-11-20T05:55:54.864Z,4.30
2017-11-20T05:58:22.415Z,4.30
2017-11-20T06:00:49.960Z,4.20
2017-11-20T06:03:17.704Z,4.20
2017-11-20T06:05:45.248Z,4.20
2017-11-20T06:08:12.826Z,4.20
2017-11-20T06:10:40.442Z,4.20
2017-11-20T06:13:08.757Z,4.20
2017-11-20T06:15:36.308Z,4.20
2017-11-20T06:18:04.676Z,4.30
2017-11-20T06:20:32.233Z,4.30
2017-11-20T06:22:59.775Z,4.30
2017-11-20T06:25:27.378Z,4.30
2017-11-20T06:27:55.689Z,4.30
2017-11-20T06:30:23.992Z,4.30
2017-11-20T06:32:52.530Z,4.30
2017-11-20T06:35:20.068Z,4.30
2017-11-20T06:37:47.619Z,4.40
2017-11-20T06:40:16.081Z,4.50
2017-11-20T06:42:43.633Z,4.50
2017-11-20T06:45:11.180Z,4.50
2017-11-20T06:47:38.768Z,4.50
2017-11-20T06:50:06.322Z,4.60
2017-11-20T06:52:34.395Z,4.60
2017-11-20T06:55:02.208Z,4.60
2017-11-20T06:57:29.752Z,4.60
2017-11-20T06:59:57.297Z,4.60
2017-11-20T07:02:25.656Z,4.70
2017-11-20T07:04:53.201Z,4.70
2017-11-20T07:07:20.753Z,4.80
2017-11-20T07:09:48.492Z,4.70
2017-11-20T07:12:16.807Z,4.80
2017-11-20T07:14:44.377Z,4.70
2017-11-20T07:17:12.329Z,4.80
2017-11-20T07:19:39.885Z,4.80
2017-11-20T07:22:07.447Z,4.80
2017-11-20T07:24:35.037Z,4.80
2017-11-20T07:27:02.596Z,4.80
2017-11-20T07:29:42.132Z,4.80
2017-11-20T07:32:09.677Z,4.80
2017-11-20T07:34:49.363Z,4.80
2017-11-20T07:37:28.788Z,4.90
2017-11-20T07:40:08.238Z,4.90
2017-11-20T07:42:35.793Z,5.00
2017-11-20T07:45:03.364Z,5.10
2017-11-20T07:47:30.970Z,5.20
2017-11-20T07:49:58.526Z,5.30
2017-11-20T07:52:26.073Z,5.50
2017-11-20T07:54:54.428Z,5.60
2017-11-20T07:57:21.980Z,5.60
2017-11-20T07:59:49.529Z,5.60
2017-11-20T08:02:17.153Z,5.60
2017-11-20T08:04:44.700Z,5.60
2017-11-20T08:07:12.253Z,5.60
2017-11-20T08:09:40.041Z,5.50
2017-11-20T08:12:07.588Z,5.50
2017-11-20T08:14:35.136Z,5.50
2017-11-20T08:17:03.505Z,5.50
2017-11-20T08:19:31.049Z,5.50
2017-11-20T08:21:58.597Z,5.60
2017-11-20T08:24:26.209Z,5.60
2017-11-20T08:26:53.761Z,5.60
2017-11-20T08:29:21.318Z,5.60
2017-11-20T08:31:48.925Z,5.60
2017-11-20T08:34:16.481Z,5.60
2017-11-20T08:36:44.033Z,5.50
2017-11-20T08:39:11.620Z,5.50
2017-11-20T08:41:39.167Z,5.50
2017-11-20T08:44:06.713Z,5.50
2017-11-20T08:46:34.309Z,5.50
2017-11-20T08:49:01.851Z,5.50
2017-11-20T08:51:30.160Z,5.60
2017-11-20T08:53:57.820Z,5.60
2017-11-20T08:56:25.376Z,5.60
2017-11-20T08:58:52.919Z,5.60
2017-11-20T09:01:20.529Z,5.60
2017-11-20T09:03:48.844Z,5.60
2017-11-20T09:06:16.400Z,5.60
2017-11-20T09:08:44.002Z,5.70
2017-11-20T09:11:11.552Z,5.70
2017-11-20T09:13:39.096Z,5.70
2017-11-20T09:16:07.592Z,5.80
2017-11-20T09:18:35.900Z,5.90
2017-11-20T09:21:03.457Z,5.90
2017-11-20T09:23:31.058Z,5.90
2017-11-20T09:25:58.613Z,5.90
2017-11-20T09:28:26.164Z,5.90
2017-11-20T09:30:54.712Z,6.00
2017-11-20T09:33:22.256Z,6.00
2017-11-20T09:35:49.816Z,6.00
2017-11-20T09:38:17.414Z,6.10
2017-11-20T09:40:44.960Z,6.10
2017-11-20T09:43:12.508Z,6.10
2017-11-20T09:45:40.873Z,6.20
2017-11-20T09:48:08.430Z,6.20
2017-11-20T09:50:35.977Z,6.20
2017-11-20T09:53:03.568Z,6.20
2017-11-20T09:55:31.112Z,6.20
2017-11-20T09:57:58.698Z,6.20
2017-11-20T10:00:26.491Z,6.20
2017-11-20T10:02:54.032Z,6.30
2017-11-20T10:05:21.583Z,6.30
2017-11-20T10:07:49.944Z,6.40
2017-11-20T10:10:17.504Z,6.40
2017-11-20T10:12:45.041Z,6.50
2017-11-20T10:15:12.638Z,6.50
2017-11-20T10:17:40.184Z,6.60
2017-11-20T10:20:07.745Z,6.60
2017-11-20T10:22:35.335Z,6.60
2017-11-20T10:25:02.875Z,6.70
2017-11-20T10:27:30.416Z,6.60
2017-11-20T10:29:58.989Z,6.60
2017-11-20T10:32:26.545Z,6.60
2017-11-20T10:34:54.089Z,6.60
2017-11-20T10:37:21.690Z,6.60
2017-11-20T10:39:49.248Z,6.60
2017-11-20T10:42:16.800Z,6.60
2017-11-20T10:44:44.509Z,6.60
2017-11-20T10:47:12.095Z,6.60
2017-11-20T10:49:39.636Z,6.60
2017-11-20T10:52:07.428Z,6.60
2017-11-20T10:54:34.977Z,6.70
2017-11-20T10:57:02.520Z,6.70
2017-11-20T10:59:30.168Z,6.60
2017-11-20T11:01:57.732Z,6.70
2017-11-20T11:04:25.272Z,6.70
2017-11-20T11:06:52.880Z,6.70
2017-11-20T11:09:20.426Z,6.70
2017-11-20T11:11:47.972Z,6.70
2017-11-20T11:14:15.776Z,6.70
2017-11-20T11:16:43.332Z,6.70
2017-11-20T11:19:10.883Z,6.70
2017-11-20T11:21:38.489Z,6.70
2017-11-20T11:24:06.042Z,6.70
2017-11-20T11:26:33.592Z,6.70
2017-11-20T11:29:01.309Z,6.70
2017-11-20T11:31:28.866Z,6.70
2017-11-20T11:33:56.418Z,6.70
2017-11-20T11:36:24.191Z,6.70
2017-11-20T11:38:51.755Z,6.70
2017-11-20T11:41:20.072Z,6.70
2017-11-20T11:43:47.668Z,6.70
2017-11-20T11:46:15.215Z,6.70
2017-11-20T11:48:42.763Z,6.70
2017-11-20T11:51:10.370Z,6.70
2017-11-20T11:53:37.935Z,6.80
2017-11-20T11:56:05.488Z,6.80
2017-11-20T11:58:33.175Z,6.80
2017-11-20T12:01:00.718Z,6.80
2017-11-20T12:03:28.264Z,6.90
2017-11-20T12:05:56.005Z,6.90
2017-11-20T12:08:23.575Z,6.90
2017-11-20T12:10:51.121Z,6.90
2017-11-20T12:13:18.968Z,6.90
2017-11-20T12:15:47.286Z,6.90
2017-11-20T12:18:14.832Z,6.90
2017-11-20T12:20:43.427Z,6.90
2017-11-20T12:23:11.728Z,6.90
2017-11-20T12:25:39.272Z,6.90
2017-11-20T12:28:07.108Z,6.90
2017-11-20T12:30:34.652Z,6.90
2017-11-20T12:33:02.198Z,6.90
2017-11-20T12:35:30.752Z,6.90
2017-11-20T12:37:58.296Z,6.90
2017-11-20T12:40:25.867Z,6.90
2017-11-20T12:42:53.472Z,6.90
2017-11-20T12:45:21.008Z,6.90
2017-11-20T12:47:49.116Z,6.90
2017-11-20T12:50:17.128Z,6.90
2017-11-20T12:52:45.458Z,6.80
2017-11-20T12:55:14.189Z,6.70
2017-11-20T12:57:41.972Z,6.70
2017-11-20T13:00:10.752Z,6.70
2017-11-20T13:02:38.365Z,6.70
2017-11-20T13:05:06.063Z,6.70
2017-11-20T13:07:34.365Z,6.80
2017-11-20T13:10:02.156Z,6.80
2017-11-20T13:12:29.757Z,6.80
2017-11-20T13:14:57.296Z,6.80
2017-11-20T13:17:27.106Z,6.80
2017-11-20T13:19:55.334Z,6.80
2017-11-20T13:22:23.484Z,6.90
2017-11-20T13:24:51.024Z,6.90
2017-11-20T13:27:18.612Z,7.00
2017-11-20T13:29:46.919Z,7.00
2017-11-20T13:32:15.194Z,7.00
2017-11-20T13:34:43.565Z,7.00
2017-11-20T13:37:11.871Z,6.90
2017-11-20T13:39:40.182Z,6.90
2017-11-20T13:42:07.805Z,6.90
2017-11-20T13:44:35.343Z,6.80
2017-11-20T13:47:02.883Z,6.70
2017-11-20T13:49:30.710Z,6.70
2017-11-20T13:51:58.273Z,6.60
2017-11-20T13:54:25.813Z,6.60
2017-11-20T13:56:53.429Z,6.50
2017-11-20T13:59:21.236Z,6.50
2017-11-20T14:01:49.552Z,6.40
2017-11-20T14:04:17.251Z,6.40
2017-11-20T14:06:44.812Z,6.40
2017-11-20T14:09:12.364Z,6.40
2017-11-20T14:11:40.126Z,6.30
2017-11-20T14:14:07.668Z,6.30
2017-11-20T14:16:35.221Z,6.30
2017-11-20T14:19:02.836Z,6.20
2017-11-20T14:21:31.189Z,6.20
2017-11-20T14:23:58.731Z,6.20
2017-11-20T14:26:26.323Z,6.20
2017-11-20T14:28:53.864Z,6.20
2017-11-20T14:31:21.409Z,6.20
2017-11-20T14:33:49.952Z,6.20
2017-11-20T14:36:17.503Z,6.20
2017-11-20T14:38:45.056Z,6.20
2017-11-20T14:41:12.647Z,6.20
2017-11-20T14:43:40.201Z,6.10
2017-11-20T14:46:07.750Z,6.00
2017-11-20T14:48:36.845Z,6.00
2017-11-20T14:51:16.113Z,6.00
2017-11-20T14:53:46.167Z,6.00
2017-11-20T14:56:13.720Z,6.00
2017-11-20T14:58:41.269Z,6.00
2017-11-20T15:01:09.669Z,5.90
2017-11-20T15:03:38.009Z,5.80
2017-11-20T15:06:05.561Z,5.80
2017-11-20T15:08:33.260Z,5.80
2017-11-20T15:11:00.811Z,5.80
2017-11-20T15:13:28.365Z,5.80
2017-11-20T15:15:55.981Z,5.80
2017-11-20T15:18:23.533Z,5.80
2017-11-20T15:20:51.077Z,5.80
2017-11-20T15:23:18.801Z,5.70
2017-11-20T15:25:46.439Z,5.80
2017-11-20T15:28:13.997Z,5.80
2017-11-20T15:30:41.596Z,5.70
2017-11-20T15:33:09.139Z,5.70
2017-11-20T15:35:36.694Z,5.70
2017-11-20T15:38:05.064Z,5.70
2017-11-20T15:40:32.624Z,5.70
2017-11-20T15:43:01.695Z,5.70
2017-11-20T15:45:29.284Z,5.70
2017-11-20T15:47:56.832Z,5.70
2017-11-20T15:50:24.384Z,5.70
2017-11-20T15:52:53.133Z,5.70
2017-11-20T15:55:20.684Z,5.70
2017-11-20T15:57:49.104Z,5.70
2017-11-20T16:00:16.712Z,5.70
2017-11-20T16:02:45.133Z,5.60
2017-11-20T16:05:12.804Z,5.70
2017-11-20T16:07:40.548Z,5.60
2017-11-20T16:10:08.871Z,5.60
2017-11-20T16:12:37.392Z,5.60
2017-11-20T16:15:05.139Z,5.60
2017-11-20T16:17:34.372Z,5.60
2017-11-20T16:20:02.030Z,5.60
2017-11-20T16:22:29.752Z,5.60
2017-11-20T16:24:57.304Z,5.60
2017-11-20T16:27:24.864Z,5.60
2017-11-20T16:29:52.625Z,5.60
2017-11-20T16:32:20.184Z,5.60
2017-11-20T16:34:47.736Z,5.60
2017-11-20T16:37:15.359Z,5.60
2017-11-20T16:39:42.916Z,5.60
2017-11-20T16:42:10.479Z,5.60
2017-11-20T16:44:38.080Z,5.60
2017-11-20T16:47:05.634Z,5.60
2017-11-20T16:49:33.220Z,5.60
2017-11-20T16:52:00.943Z,5.60
2017-11-20T16:54:28.532Z,5.60
2017-11-20T16:57:08.116Z,5.60
2017-11-20T16:59:37.065Z,5.50
2017-11-20T17:02:26.217Z,5.50
2017-11-20T17:04:55.275Z,5.50
2017-11-20T17:07:22.832Z,5.40
2017-11-20T17:09:50.583Z,5.40
2017-11-20T17:12:18.904Z,5.30
2017-11-20T17:14:47.265Z,5.30
2017-11-20T17:17:15.820Z,5.30
2017-11-20T17:19:43.372Z,5.30
2017-11-20T17:22:10.918Z,5.30
2017-11-20T17:24:38.521Z,5.30
2017-11-20T17:27:06.080Z,5.30
2017-11-20T17:29:33.640Z,5.20
2017-11-20T17:32:01.240Z,5.20
2017-11-20T17:34:28.806Z,5.20
2017-11-20T17:36:56.401Z,5.20
2017-11-20T17:39:25.648Z,5.20
2017-11-20T17:41:53.980Z,5.20
2017-11-20T17:44:21.547Z,5.20
2017-11-20T17:46:49.332Z,5.10
2017-11-20T17:49:16.894Z,5.10
2017-11-20T17:51:44.460Z,5.10
2017-11-20T17:54:12.064Z,5.10
2017-11-20T17:56:39.728Z,5.10
2017-11-20T17:59:07.294Z,5.10
2017-11-20T18:01:34.897Z,5.10
2017-11-20T18:04:02.456Z,5.00
2017-11-20T18:06:30.012Z,5.00
2017-11-20T18:08:57.708Z,5.00
2017-11-20T18:11:25.345Z,5.10
2017-11-20T18:13:52.967Z,5.00
2017-11-20T18:16:21.385Z,5.00
2017-11-20T18:18:48.936Z,5.00
2017-11-20T18:21:17.265Z,5.00
2017-11-20T18:23:45.027Z,5.00
2017-11-20T18:26:12.578Z,5.00
2017-11-20T18:28:40.138Z,5.10
2017-11-20T18:31:08.517Z,5.20
2017-11-20T18:33:36.068Z,5.20
2017-11-20T18:36:03.682Z,5.30
2017-11-20T18:38:32.320Z,5.30
2017-11-20T18:40:59.880Z,5.30
2017-11-20T18:43:27.437Z,5.40
2017-11-20T18:45:55.144Z,5.40
2017-11-20T18:48:22.694Z,5.40
2017-11-20T18:50:50.257Z,5.30
2017-11-20T18:53:17.864Z,5.30
2017-11-20T18:55:45.434Z,5.30
2017-11-20T18:58:12.995Z,5.20
2017-11-20T19:00:52.653Z,5.20
2017-11-20T19:03:27.748Z,5.20
2017-11-20T19:06:07.809Z,5.10
2017-11-20T19:08:41.608Z,5.10
2017-11-20T19:11:09.208Z,5.10
2017-11-20T19:13:37.521Z,5.10
2017-11-20T19:16:05.072Z,5.10
2017-11-20T19:18:33.540Z,5.00
2017-11-20T19:21:01.089Z,5.00
2017-11-20T19:23:28.630Z,5.00
2017-11-20T19:25:56.331Z,5.00
2017-11-20T19:28:23.877Z,5.00
2017-11-20T19:30:51.435Z,5.00
2017-11-20T19:33:19.052Z,5.00
2017-11-20T19:35:47.350Z,5.00
2017-11-20T19:38:15.696Z,5.00
2017-11-20T19:40:43.305Z,5.00
2017-11-20T19:43:10.889Z,5.00
2017-11-20T19:45:38.444Z,5.00
2017-11-20T19:48:06.902Z,5.00
2017-11-20T19:50:34.484Z,4.90
2017-11-20T19:53:02.031Z,5.00
2017-11-20T19:55:29.848Z,5.00
2017-11-20T19:57:57.394Z,5.00
2017-11-20T20:00:24.951Z,5.00
2017-11-20T20:02:52.559Z,5.00
2017-11-20T20:05:20.105Z,4.90
2017-11-20T20:07:47.719Z,5.80
2017-11-20T20:10:15.320Z,5.00
2017-11-20T20:12:43.642Z,5.00
2017-11-20T20:15:23.102Z,5.00
2017-11-20T20:17:50.657Z,5.00
2017-11-20T20:20:18.213Z,5.00
2017-11-20T20:22:45.819Z,5.00
2017-11-20T20:25:13.374Z,5.00
2017-11-20T20:27:40.924Z,4.90
2017-11-20T20:30:09.292Z,4.90
2017-11-20T20:32:36.839Z,4.90
2017-11-20T20:35:04.389Z,4.90
2017-11-20T20:37:31.988Z,4.90
2017-11-20T20:39:59.536Z,4.90
2017-11-20T20:42:27.088Z,4.90
2017-11-20T20:44:54.800Z,4.90
2017-11-20T20:47:22.368Z,5.00
2017-11-20T20:49:49.927Z,5.00
2017-11-20T20:52:17.520Z,5.00
2017-11-20T20:54:45.072Z,5.00
2017-11-20T20:57:12.628Z,5.00
2017-11-20T20:59:40.236Z,5.00
2017-11-20T21:02:07.790Z,5.00
2017-11-20T21:04:35.343Z,5.00
2017-11-20T21:09:42.652Z,5.10
2017-11-20T21:12:16.789Z,5.10
2017-11-20T21:14:44.491Z,5.00
2017-11-20T21:17:12.041Z,5.00
2017-11-20T21:19:39.588Z,5.10
2017-11-20T21:22:08.048Z,5.00
2017-11-20T21:24:35.604Z,5.00
2017-11-20T21:27:03.161Z,5.00
2017-11-20T21:29:30.871Z,5.00
2017-11-20T21:31:58.433Z,5.00
2017-11-20T21:34:25.989Z,5.10
2017-11-20T21:36:53.768Z,5.00
2017-11-20T21:39:21.316Z,4.90
2017-11-20T21:41:48.859Z,4.90
2017-11-20T21:44:16.484Z,4.90
2017-11-20T21:46:44.033Z,4.90
2017-11-20T21:49:11.580Z,4.90
2017-11-20T21:51:39.189Z,4.90
2017-11-20T21:54:06.746Z,4.90
2017-11-20T21:56:34.301Z,5.00
2017-11-20T21:59:01.976Z,4.90
2017-11-20T22:01:29.593Z,4.90
2017-11-20T22:03:57.140Z,4.90
2017-11-20T22:06:24.939Z,5.00
2017-11-20T22:08:52.489Z,4.90
2017-11-20T22:11:20.037Z,4.80
2017-11-20T22:13:47.856Z,4.80
2017-11-20T22:16:15.425Z,4.70
2017-11-20T22:18:42.979Z,4.70
2017-11-20T22:21:10.599Z,4.70
2017-11-20T22:23:39.193Z,4.70
2017-11-20T22:26:06.740Z,4.70
2017-11-20T22:28:34.347Z,4.70
2017-11-20T22:31:02.661Z,4.70
2017-11-20T22:33:30.218Z,4.70
2017-11-20T22:35:57.825Z,4.80
2017-11-20T22:38:25.392Z,4.70
2017-11-20T22:40:52.962Z,4.70
2017-11-20T22:43:20.573Z,4.70
2017-11-20T22:45:48.299Z,4.70
2017-11-20T22:48:15.864Z,4.70
2017-11-20T22:50:43.483Z,4.70
2017-11-20T22:53:11.033Z,4.70
2017-11-20T22:55:38.588Z,4.70
2017-11-20T22:58:06.384Z,4.70
2017-11-20T23:00:34.203Z,4.70
2017-11-20T23:03:02.522Z,4.70
2017-11-20T23:05:30.144Z,4.70
2017-11-20T23:07:57.704Z,4.70
2017-11-20T23:10:25.271Z,4.70
2017-11-20T23:12:52.876Z,4.70
2017-11-20T23:15:21.208Z,4.70
2017-11-20T23:17:48.779Z,4.70
2017-11-20T23:20:16.373Z,4.70
2017-11-20T23:22:43.921Z,4.70
2017-11-20T23:25:11.472Z,4.70
2017-11-20T23:27:39.077Z,4.70
2017-11-20T23:30:06.636Z,4.70
2017-11-20T23:32:34.185Z,4.70
2017-11-20T23:35:02.000Z,4.70
2017-11-20T23:37:29.548Z,4.70
2017-11-20T23:39:57.108Z,4.70
2017-11-20T23:42:24.704Z,4.60
2017-11-20T23:44:52.589Z,4.60
2017-11-20T23:47:20.153Z,4.70
2017-11-20T23:49:47.897Z,4.60
2017-11-20T23:52:15.452Z,4.60
2017-11-20T23:54:43.774Z,4.60
2017-11-20T23:57:11.375Z,4.60
2017-11-20T23:59:38.924Z,4.60
